sensor_id;sensor_type;location;lat;lon;timestamp;P1;durP1;ratioP1;P2;durP2;ratioP2
7931;SDS011;4011;49.424;10.894;2023-08-20T00:04:00;7.70;;;6.28;;
7931;SDS011;4011;49.424;10.894;2023-08-20T00:09:22;8.98;;;6.22;;
7931;SDS011;4011;49.424;10.894;2023-08-20T00:14:53;10.20;;;6.90;;
7931;SDS011;4011;49.424;10.894;2023-08-20T00:20:17;8.50;;;6.30;;
7931;SDS011;4011;49.424;10.894;2023-08-20T00:25:39;8.75;;;5.95;;
7931;SDS011;4011;49.424;10.894;2023-08-20T00:31:01;6.60;;;5.60;;
7931;SDS011;4011;49.424;10.894;2023-08-20T00:36:24;7.95;;;6.85;;
7931;SDS011;4011;49.424;10.894;2023-08-20T00:41:45;7.10;;;5.97;;
7931;SDS011;4011;49.424;10.894;2023-08-20T00:47:07;8.40;;;6.30;;
7931;SDS011;4011;49.424;10.894;2023-08-20T00:52:30;7.45;;;6.45;;
7931;SDS011;4011;49.424;10.894;2023-08-20T00:57:52;7.22;;;6.50;;
7931;SDS011;4011;49.424;10.894;2023-08-20T01:03:13;6.97;;;6.25;;
7931;SDS011;4011;49.424;10.894;2023-08-20T01:08:37;7.68;;;6.38;;
7931;SDS011;4011;49.424;10.894;2023-08-20T01:13:59;6.68;;;5.97;;
7931;SDS011;4011;49.424;10.894;2023-08-20T01:19:22;7.45;;;6.00;;
7931;SDS011;4011;49.424;10.894;2023-08-20T01:24:46;7.40;;;6.60;;
7931;SDS011;4011;49.424;10.894;2023-08-20T01:30:12;8.05;;;6.50;;
7931;SDS011;4011;49.424;10.894;2023-08-20T01:35:34;7.32;;;6.20;;
7931;SDS011;4011;49.424;10.894;2023-08-20T01:40:55;7.38;;;6.35;;
7931;SDS011;4011;49.424;10.894;2023-08-20T01:46:18;8.18;;;6.55;;
7931;SDS011;4011;49.424;10.894;2023-08-20T01:51:40;7.35;;;6.63;;
7931;SDS011;4011;49.424;10.894;2023-08-20T01:57:01;8.05;;;6.18;;
7931;SDS011;4011;49.424;10.894;2023-08-20T02:02:24;7.93;;;5.68;;
7931;SDS011;4011;49.424;10.894;2023-08-20T02:07:46;8.27;;;6.90;;
7931;SDS011;4011;49.424;10.894;2023-08-20T02:13:07;7.97;;;6.00;;
7931;SDS011;4011;49.424;10.894;2023-08-20T02:18:30;7.20;;;6.50;;
7931;SDS011;4011;49.424;10.894;2023-08-20T02:23:52;7.45;;;5.97;;
7931;SDS011;4011;49.424;10.894;2023-08-20T02:29:13;7.97;;;6.38;;
7931;SDS011;4011;49.424;10.894;2023-08-20T02:34:37;8.13;;;5.95;;
7931;SDS011;4011;49.424;10.894;2023-08-20T02:39:59;8.10;;;6.30;;
7931;SDS011;4011;49.424;10.894;2023-08-20T02:45:20;7.82;;;5.63;;
7931;SDS011;4011;49.424;10.894;2023-08-20T02:50:43;8.68;;;6.38;;
7931;SDS011;4011;49.424;10.894;2023-08-20T02:56:05;6.05;;;5.45;;
7931;SDS011;4011;49.424;10.894;2023-08-20T03:01:26;7.53;;;5.80;;
7931;SDS011;4011;49.424;10.894;2023-08-20T03:06:49;7.70;;;5.90;;
7931;SDS011;4011;49.424;10.894;2023-08-20T03:12:10;7.68;;;6.10;;
7931;SDS011;4011;49.424;10.894;2023-08-20T03:17:31;6.82;;;5.55;;
7931;SDS011;4011;49.424;10.894;2023-08-20T03:22:54;7.05;;;6.10;;
7931;SDS011;4011;49.424;10.894;2023-08-20T03:28:17;6.38;;;5.75;;
7931;SDS011;4011;49.424;10.894;2023-08-20T03:33:38;10.27;;;6.05;;
7931;SDS011;4011;49.424;10.894;2023-08-20T03:39:01;8.15;;;5.80;;
7931;SDS011;4011;49.424;10.894;2023-08-20T03:44:23;6.78;;;5.80;;
7931;SDS011;4011;49.424;10.894;2023-08-20T03:49:45;6.80;;;5.40;;
7931;SDS011;4011;49.424;10.894;2023-08-20T03:55:08;7.07;;;5.97;;
7931;SDS011;4011;49.424;10.894;2023-08-20T04:00:30;7.72;;;5.50;;
7931;SDS011;4011;49.424;10.894;2023-08-20T04:05:52;6.60;;;5.93;;
7931;SDS011;4011;49.424;10.894;2023-08-20T04:11:15;7.80;;;5.97;;
7931;SDS011;4011;49.424;10.894;2023-08-20T04:16:36;7.13;;;5.38;;
7931;SDS011;4011;49.424;10.894;2023-08-20T04:21:58;6.53;;;5.22;;
7931;SDS011;4011;49.424;10.894;2023-08-20T04:27:21;6.03;;;5.43;;
7931;SDS011;4011;49.424;10.894;2023-08-20T04:32:42;7.93;;;6.00;;
7931;SDS011;4011;49.424;10.894;2023-08-20T04:38:04;7.15;;;5.57;;
7931;SDS011;4011;49.424;10.894;2023-08-20T04:43:27;6.78;;;5.93;;
7931;SDS011;4011;49.424;10.894;2023-08-20T04:48:48;7.20;;;5.55;;
7931;SDS011;4011;49.424;10.894;2023-08-20T04:54:09;7.57;;;6.25;;
7931;SDS011;4011;49.424;10.894;2023-08-20T04:59:33;6.70;;;6.03;;
7931;SDS011;4011;49.424;10.894;2023-08-20T05:04:54;9.23;;;6.03;;
7931;SDS011;4011;49.424;10.894;2023-08-20T05:10:16;8.57;;;6.20;;
7931;SDS011;4011;49.424;10.894;2023-08-20T05:15:39;7.05;;;6.35;;
7931;SDS011;4011;49.424;10.894;2023-08-20T05:21:00;9.10;;;6.97;;
7931;SDS011;4011;49.424;10.894;2023-08-20T05:26:24;7.53;;;6.00;;
7931;SDS011;4011;49.424;10.894;2023-08-20T05:31:46;7.53;;;6.72;;
7931;SDS011;4011;49.424;10.894;2023-08-20T05:37:08;6.93;;;5.93;;
7931;SDS011;4011;49.424;10.894;2023-08-20T05:42:29;8.55;;;6.40;;
7931;SDS011;4011;49.424;10.894;2023-08-20T05:47:52;8.57;;;6.43;;
7931;SDS011;4011;49.424;10.894;2023-08-20T05:53:14;8.65;;;6.47;;
7931;SDS011;4011;49.424;10.894;2023-08-20T05:58:35;9.63;;;7.00;;
7931;SDS011;4011;49.424;10.894;2023-08-20T06:03:58;9.77;;;7.45;;
7931;SDS011;4011;49.424;10.894;2023-08-20T06:09:19;10.60;;;7.18;;
7931;SDS011;4011;49.424;10.894;2023-08-20T06:14:41;8.55;;;6.88;;
7931;SDS011;4011;49.424;10.894;2023-08-20T06:20:05;8.07;;;7.28;;
7931;SDS011;4011;49.424;10.894;2023-08-20T06:30:49;10.82;;;8.65;;
7931;SDS011;4011;49.424;10.894;2023-08-20T06:36:12;10.07;;;8.20;;
7931;SDS011;4011;49.424;10.894;2023-08-20T06:41:33;10.77;;;7.85;;
7931;SDS011;4011;49.424;10.894;2023-08-20T06:46:55;9.90;;;8.70;;
7931;SDS011;4011;49.424;10.894;2023-08-20T06:52:18;11.07;;;9.23;;
7931;SDS011;4011;49.424;10.894;2023-08-20T06:57:39;10.15;;;7.80;;
7931;SDS011;4011;49.424;10.894;2023-08-20T07:03:01;11.40;;;8.00;;
7931;SDS011;4011;49.424;10.894;2023-08-20T07:08:25;10.70;;;7.53;;
7931;SDS011;4011;49.424;10.894;2023-08-20T07:13:47;9.45;;;8.02;;
7931;SDS011;4011;49.424;10.894;2023-08-20T07:19:09;10.13;;;8.18;;
7931;SDS011;4011;49.424;10.894;2023-08-20T07:24:31;9.13;;;7.80;;
7931;SDS011;4011;49.424;10.894;2023-08-20T07:29:55;8.95;;;8.05;;
7931;SDS011;4011;49.424;10.894;2023-08-20T07:35:16;9.43;;;8.50;;
7931;SDS011;4011;49.424;10.894;2023-08-20T07:40:42;8.30;;;7.25;;
7931;SDS011;4011;49.424;10.894;2023-08-20T07:46:04;10.15;;;8.45;;
7931;SDS011;4011;49.424;10.894;2023-08-20T07:51:25;9.13;;;8.18;;
7931;SDS011;4011;49.424;10.894;2023-08-20T07:56:48;9.32;;;8.23;;
7931;SDS011;4011;49.424;10.894;2023-08-20T08:02:10;10.40;;;8.38;;
7931;SDS011;4011;49.424;10.894;2023-08-20T08:07:31;8.98;;;8.07;;
7931;SDS011;4011;49.424;10.894;2023-08-20T08:12:54;9.75;;;8.23;;
7931;SDS011;4011;49.424;10.894;2023-08-20T08:23:39;9.02;;;8.00;;
7931;SDS011;4011;49.424;10.894;2023-08-20T08:29:03;9.40;;;8.50;;
7931;SDS011;4011;49.424;10.894;2023-08-20T08:34:24;9.32;;;8.23;;
7931;SDS011;4011;49.424;10.894;2023-08-20T08:39:46;9.23;;;7.82;;
7931;SDS011;4011;49.424;10.894;2023-08-20T08:45:09;8.73;;;7.82;;
7931;SDS011;4011;49.424;10.894;2023-08-20T08:50:31;10.18;;;7.55;;
7931;SDS011;4011;49.424;10.894;2023-08-20T08:55:53;9.27;;;8.38;;
7931;SDS011;4011;49.424;10.894;2023-08-20T09:01:15;8.82;;;7.90;;
7931;SDS011;4011;49.424;10.894;2023-08-20T09:06:46;9.68;;;7.47;;
7931;SDS011;4011;49.424;10.894;2023-08-20T09:12:12;11.63;;;8.30;;
7931;SDS011;4011;49.424;10.894;2023-08-20T09:17:35;10.98;;;8.65;;
7931;SDS011;4011;49.424;10.894;2023-08-20T09:22:56;9.82;;;7.60;;
7931;SDS011;4011;49.424;10.894;2023-08-20T09:28:18;12.18;;;8.60;;
7931;SDS011;4011;49.424;10.894;2023-08-20T09:33:50;9.60;;;7.72;;
7931;SDS011;4011;49.424;10.894;2023-08-20T09:39:11;9.10;;;7.78;;
7931;SDS011;4011;49.424;10.894;2023-08-20T09:44:33;8.77;;;7.72;;
7931;SDS011;4011;49.424;10.894;2023-08-20T09:49:57;9.50;;;7.40;;
7931;SDS011;4011;49.424;10.894;2023-08-20T09:55:20;9.40;;;7.25;;
7931;SDS011;4011;49.424;10.894;2023-08-20T10:00:42;8.65;;;7.75;;
7931;SDS011;4011;49.424;10.894;2023-08-20T10:06:05;9.80;;;7.43;;
7931;SDS011;4011;49.424;10.894;2023-08-20T10:11:27;9.48;;;6.80;;
7931;SDS011;4011;49.424;10.894;2023-08-20T10:16:48;8.73;;;7.13;;
7931;SDS011;4011;49.424;10.894;2023-08-20T10:22:11;10.32;;;7.10;;
7931;SDS011;4011;49.424;10.894;2023-08-20T10:27:33;8.75;;;6.68;;
7931;SDS011;4011;49.424;10.894;2023-08-20T10:32:57;7.93;;;6.95;;
7931;SDS011;4011;49.424;10.894;2023-08-20T10:38:20;8.73;;;6.78;;
7931;SDS011;4011;49.424;10.894;2023-08-20T10:43:46;8.30;;;7.50;;
7931;SDS011;4011;49.424;10.894;2023-08-20T10:49:07;8.88;;;7.13;;
7931;SDS011;4011;49.424;10.894;2023-08-20T10:54:30;7.97;;;6.70;;
7931;SDS011;4011;49.424;10.894;2023-08-20T10:59:55;9.52;;;6.70;;
7931;SDS011;4011;49.424;10.894;2023-08-20T11:05:17;9.38;;;6.80;;
7931;SDS011;4011;49.424;10.894;2023-08-20T11:10:41;7.40;;;6.50;;
7931;SDS011;4011;49.424;10.894;2023-08-20T11:16:02;7.30;;;6.60;;
7931;SDS011;4011;49.424;10.894;2023-08-20T11:21:27;7.78;;;6.50;;
7931;SDS011;4011;49.424;10.894;2023-08-20T11:26:50;7.28;;;6.43;;
7931;SDS011;4011;49.424;10.894;2023-08-20T11:32:15;7.60;;;6.80;;
7931;SDS011;4011;49.424;10.894;2023-08-20T11:37:36;8.52;;;6.88;;
7931;SDS011;4011;49.424;10.894;2023-08-20T11:43:00;8.25;;;6.53;;
7931;SDS011;4011;49.424;10.894;2023-08-20T11:48:21;7.38;;;6.05;;
7931;SDS011;4011;49.424;10.894;2023-08-20T11:53:43;7.57;;;6.40;;
7931;SDS011;4011;49.424;10.894;2023-08-20T11:59:06;9.32;;;6.32;;
7931;SDS011;4011;49.424;10.894;2023-08-20T12:04:31;7.45;;;6.05;;
7931;SDS011;4011;49.424;10.894;2023-08-20T12:09:53;7.30;;;6.22;;
7931;SDS011;4011;49.424;10.894;2023-08-20T12:15:16;6.55;;;5.95;;
7931;SDS011;4011;49.424;10.894;2023-08-20T12:20:38;6.82;;;5.55;;
7931;SDS011;4011;49.424;10.894;2023-08-20T12:26:02;6.90;;;6.20;;
7931;SDS011;4011;49.424;10.894;2023-08-20T12:31:28;6.95;;;6.00;;
7931;SDS011;4011;49.424;10.894;2023-08-20T12:36:50;6.53;;;5.82;;
7931;SDS011;4011;49.424;10.894;2023-08-20T12:42:11;7.95;;;5.65;;
7931;SDS011;4011;49.424;10.894;2023-08-20T12:47:35;6.55;;;5.10;;
7931;SDS011;4011;49.424;10.894;2023-08-20T12:52:56;7.45;;;5.35;;
7931;SDS011;4011;49.424;10.894;2023-08-20T12:58:18;5.65;;;5.05;;
7931;SDS011;4011;49.424;10.894;2023-08-20T13:03:42;7.50;;;5.63;;
7931;SDS011;4011;49.424;10.894;2023-08-20T13:09:07;6.20;;;5.15;;
7931;SDS011;4011;49.424;10.894;2023-08-20T13:14:30;6.13;;;5.40;;
7931;SDS011;4011;49.424;10.894;2023-08-20T13:19:53;7.28;;;5.40;;
7931;SDS011;4011;49.424;10.894;2023-08-20T13:25:14;5.78;;;4.90;;
7931;SDS011;4011;49.424;10.894;2023-08-20T13:30:36;6.53;;;4.55;;
7931;SDS011;4011;49.424;10.894;2023-08-20T13:35:58;6.13;;;5.53;;
7931;SDS011;4011;49.424;10.894;2023-08-20T13:41:20;7.10;;;5.07;;
7931;SDS011;4011;49.424;10.894;2023-08-20T13:46:41;5.95;;;5.35;;
7931;SDS011;4011;49.424;10.894;2023-08-20T13:52:05;7.13;;;5.38;;
7931;SDS011;4011;49.424;10.894;2023-08-20T13:57:26;5.57;;;4.97;;
7931;SDS011;4011;49.424;10.894;2023-08-20T14:02:48;6.07;;;5.13;;
7931;SDS011;4011;49.424;10.894;2023-08-20T14:08:11;6.13;;;5.10;;
7931;SDS011;4011;49.424;10.894;2023-08-20T14:13:33;7.18;;;4.88;;
7931;SDS011;4011;49.424;10.894;2023-08-20T14:18:54;6.18;;;4.72;;
7931;SDS011;4011;49.424;10.894;2023-08-20T14:24:17;5.97;;;4.43;;
7931;SDS011;4011;49.424;10.894;2023-08-20T14:29:38;6.35;;;4.78;;
7931;SDS011;4011;49.424;10.894;2023-08-20T14:35:00;5.47;;;4.38;;
7931;SDS011;4011;49.424;10.894;2023-08-20T14:40:24;5.50;;;4.68;;
7931;SDS011;4011;49.424;10.894;2023-08-20T14:45:50;6.57;;;4.70;;
7931;SDS011;4011;49.424;10.894;2023-08-20T14:51:12;5.40;;;4.45;;
7931;SDS011;4011;49.424;10.894;2023-08-20T14:56:35;6.80;;;4.85;;
7931;SDS011;4011;49.424;10.894;2023-08-20T15:01:56;6.07;;;4.68;;
7931;SDS011;4011;49.424;10.894;2023-08-20T15:07:18;8.32;;;5.00;;
7931;SDS011;4011;49.424;10.894;2023-08-20T15:12:41;7.60;;;4.30;;
7931;SDS011;4011;49.424;10.894;2023-08-20T15:18:03;10.30;;;4.80;;
7931;SDS011;4011;49.424;10.894;2023-08-20T15:23:25;5.18;;;4.18;;
7931;SDS011;4011;49.424;10.894;2023-08-20T15:28:48;5.47;;;4.35;;
7931;SDS011;4011;49.424;10.894;2023-08-20T15:34:10;6.10;;;4.30;;
7931;SDS011;4011;49.424;10.894;2023-08-20T15:39:33;5.75;;;4.20;;
7931;SDS011;4011;49.424;10.894;2023-08-20T15:44:56;5.82;;;4.40;;
7931;SDS011;4011;49.424;10.894;2023-08-20T15:50:20;7.53;;;4.75;;
7931;SDS011;4011;49.424;10.894;2023-08-20T15:55:41;6.25;;;4.30;;
7931;SDS011;4011;49.424;10.894;2023-08-20T16:01:05;6.30;;;4.68;;
7931;SDS011;4011;49.424;10.894;2023-08-20T16:06:26;6.45;;;4.07;;
7931;SDS011;4011;49.424;10.894;2023-08-20T16:11:48;6.38;;;4.35;;
7931;SDS011;4011;49.424;10.894;2023-08-20T16:17:12;6.15;;;4.28;;
7931;SDS011;4011;49.424;10.894;2023-08-20T16:22:36;5.85;;;4.40;;
7931;SDS011;4011;49.424;10.894;2023-08-20T16:27:58;6.90;;;4.68;;
7931;SDS011;4011;49.424;10.894;2023-08-20T16:33:21;6.88;;;4.38;;
7931;SDS011;4011;49.424;10.894;2023-08-20T16:38:44;5.65;;;4.40;;
7931;SDS011;4011;49.424;10.894;2023-08-20T16:44:06;6.18;;;4.68;;
7931;SDS011;4011;49.424;10.894;2023-08-20T16:49:29;6.45;;;4.53;;
7931;SDS011;4011;49.424;10.894;2023-08-20T16:54:51;6.38;;;4.80;;
7931;SDS011;4011;49.424;10.894;2023-08-20T17:00:19;6.60;;;4.63;;
7931;SDS011;4011;49.424;10.894;2023-08-20T17:05:43;6.90;;;4.85;;
7931;SDS011;4011;49.424;10.894;2023-08-20T17:11:05;6.93;;;4.93;;
7931;SDS011;4011;49.424;10.894;2023-08-20T17:16:27;5.43;;;4.78;;
7931;SDS011;4011;49.424;10.894;2023-08-20T17:21:52;6.05;;;4.93;;
7931;SDS011;4011;49.424;10.894;2023-08-20T17:27:14;5.63;;;4.78;;
7931;SDS011;4011;49.424;10.894;2023-08-20T17:32:35;5.53;;;4.65;;
7931;SDS011;4011;49.424;10.894;2023-08-20T17:37:59;6.55;;;5.25;;
7931;SDS011;4011;49.424;10.894;2023-08-20T17:43:20;5.82;;;4.70;;
7931;SDS011;4011;49.424;10.894;2023-08-20T17:48:42;6.97;;;5.22;;
7931;SDS011;4011;49.424;10.894;2023-08-20T17:54:06;7.03;;;5.43;;
7931;SDS011;4011;49.424;10.894;2023-08-20T17:59:27;7.05;;;5.47;;
7931;SDS011;4011;49.424;10.894;2023-08-20T18:04:49;6.40;;;5.38;;
7931;SDS011;4011;49.424;10.894;2023-08-20T18:10:13;7.60;;;5.32;;
7931;SDS011;4011;49.424;10.894;2023-08-20T18:15:35;7.13;;;5.72;;
7931;SDS011;4011;49.424;10.894;2023-08-20T18:20:57;7.35;;;5.82;;
7931;SDS011;4011;49.424;10.894;2023-08-20T18:26:20;5.93;;;5.05;;
7931;SDS011;4011;49.424;10.894;2023-08-20T18:31:42;6.93;;;5.53;;
7931;SDS011;4011;49.424;10.894;2023-08-20T18:37:09;7.25;;;6.10;;
7931;SDS011;4011;49.424;10.894;2023-08-20T18:42:33;6.35;;;5.47;;
7931;SDS011;4011;49.424;10.894;2023-08-20T18:47:54;7.30;;;5.97;;
7931;SDS011;4011;49.424;10.894;2023-08-20T18:53:24;7.57;;;6.40;;
7931;SDS011;4011;49.424;10.894;2023-08-20T18:58:47;6.82;;;5.78;;
7931;SDS011;4011;49.424;10.894;2023-08-20T19:04:09;8.82;;;6.22;;
7931;SDS011;4011;49.424;10.894;2023-08-20T19:09:31;8.50;;;5.90;;
7931;SDS011;4011;49.424;10.894;2023-08-20T19:14:54;6.57;;;5.88;;
7931;SDS011;4011;49.424;10.894;2023-08-20T19:20:15;7.40;;;5.63;;
7931;SDS011;4011;49.424;10.894;2023-08-20T19:25:37;6.45;;;5.85;;
7931;SDS011;4011;49.424;10.894;2023-08-20T19:31:00;8.82;;;6.50;;
7931;SDS011;4011;49.424;10.894;2023-08-20T19:36:21;7.50;;;6.13;;
7931;SDS011;4011;49.424;10.894;2023-08-20T19:41:43;7.72;;;5.80;;
7931;SDS011;4011;49.424;10.894;2023-08-20T19:47:06;6.88;;;5.63;;
7931;SDS011;4011;49.424;10.894;2023-08-20T19:52:27;7.70;;;6.90;;
7931;SDS011;4011;49.424;10.894;2023-08-20T19:57:49;7.70;;;7.00;;
7931;SDS011;4011;49.424;10.894;2023-08-20T20:03:12;9.90;;;7.18;;
7931;SDS011;4011;49.424;10.894;2023-08-20T20:08:36;9.43;;;7.57;;
7931;SDS011;4011;49.424;10.894;2023-08-20T20:14:01;9.45;;;7.25;;
7931;SDS011;4011;49.424;10.894;2023-08-20T20:19:24;9.38;;;8.02;;
7931;SDS011;4011;49.424;10.894;2023-08-20T20:24:48;10.60;;;8.05;;
7931;SDS011;4011;49.424;10.894;2023-08-20T20:30:10;9.02;;;7.72;;
7931;SDS011;4011;49.424;10.894;2023-08-20T20:35:33;8.43;;;7.43;;
7931;SDS011;4011;49.424;10.894;2023-08-20T20:40:54;10.93;;;7.80;;
7931;SDS011;4011;49.424;10.894;2023-08-20T20:46:15;9.48;;;7.25;;
7931;SDS011;4011;49.424;10.894;2023-08-20T20:51:38;9.60;;;7.80;;
7931;SDS011;4011;49.424;10.894;2023-08-20T20:57:00;12.88;;;8.57;;
7931;SDS011;4011;49.424;10.894;2023-08-20T21:02:21;10.02;;;8.07;;
7931;SDS011;4011;49.424;10.894;2023-08-20T21:07:45;10.27;;;7.70;;
7931;SDS011;4011;49.424;10.894;2023-08-20T21:13:07;11.98;;;8.05;;
7931;SDS011;4011;49.424;10.894;2023-08-20T21:18:30;10.73;;;8.20;;
7931;SDS011;4011;49.424;10.894;2023-08-20T21:23:53;9.45;;;8.27;;
7931;SDS011;4011;49.424;10.894;2023-08-20T21:29:15;12.65;;;8.82;;
7931;SDS011;4011;49.424;10.894;2023-08-20T21:34:37;8.88;;;7.90;;
7931;SDS011;4011;49.424;10.894;2023-08-20T21:40:01;11.90;;;8.52;;
7931;SDS011;4011;49.424;10.894;2023-08-20T21:45:22;10.00;;;8.77;;
7931;SDS011;4011;49.424;10.894;2023-08-20T21:50:44;10.07;;;8.77;;
7931;SDS011;4011;49.424;10.894;2023-08-20T21:56:07;10.05;;;7.93;;
7931;SDS011;4011;49.424;10.894;2023-08-20T22:01:28;11.48;;;8.90;;
7931;SDS011;4011;49.424;10.894;2023-08-20T22:06:50;11.13;;;8.52;;
7931;SDS011;4011;49.424;10.894;2023-08-20T22:12:15;10.02;;;8.50;;
7931;SDS011;4011;49.424;10.894;2023-08-20T22:17:39;10.52;;;9.27;;
7931;SDS011;4011;49.424;10.894;2023-08-20T22:23:05;9.93;;;7.78;;
7931;SDS011;4011;49.424;10.894;2023-08-20T22:28:28;10.02;;;7.70;;
7931;SDS011;4011;49.424;10.894;2023-08-20T22:33:50;9.77;;;8.50;;
7931;SDS011;4011;49.424;10.894;2023-08-20T22:39:11;9.95;;;8.98;;
7931;SDS011;4011;49.424;10.894;2023-08-20T22:44:34;11.90;;;8.68;;
7931;SDS011;4011;49.424;10.894;2023-08-20T22:49:56;9.75;;;8.02;;
7931;SDS011;4011;49.424;10.894;2023-08-20T22:55:17;10.48;;;8.95;;
7931;SDS011;4011;49.424;10.894;2023-08-20T23:00:40;11.55;;;10.30;;
7931;SDS011;4011;49.424;10.894;2023-08-20T23:06:01;10.55;;;9.18;;
7931;SDS011;4011;49.424;10.894;2023-08-20T23:11:23;10.68;;;8.60;;
7931;SDS011;4011;49.424;10.894;2023-08-20T23:16:45;10.50;;;9.35;;
7931;SDS011;4011;49.424;10.894;2023-08-20T23:22:07;10.57;;;8.52;;
7931;SDS011;4011;49.424;10.894;2023-08-20T23:27:28;9.35;;;8.45;;
7931;SDS011;4011;49.424;10.894;2023-08-20T23:32:51;9.57;;;8.65;;
7931;SDS011;4011;49.424;10.894;2023-08-20T23:38:12;11.35;;;9.05;;
7931;SDS011;4011;49.424;10.894;2023-08-20T23:43:34;9.93;;;8.65;;
7931;SDS011;4011;49.424;10.894;2023-08-20T23:48:56;10.90;;;8.60;;
7931;SDS011;4011;49.424;10.894;2023-08-20T23:54:18;10.10;;;8.10;;
7931;SDS011;4011;49.424;10.894;2023-08-20T23:59:42;9.18;;;8.25;;
